Date,TemperatureHighF,TemperatureAvgF,TemperatureLowF,DewpointHighF,DewpointAvgF,DewpointLowF,HumidityHigh,HumidityAvg,HumidityLow,PressureMaxIn,PressureMinIn,WindSpeedMaxMPH,WindSpeedAvgMPH,GustSpeedMaxMPH,PrecipitationSumIn
2013-12-1,69.4,60.1,52.4,48.3,43.8,36.5,73,55,43,30.24,30.13,5,1,10,0.00
2013-12-2,57.6,51.9,45.2,50.7,-15.0,-99.9,83,41,1,30.13,29.89,16,2,20,0.04
2013-12-3,49.3,44.0,38.2,39.3,11.3,-99.9,84,60,1,29.88,29.76,13,3,21,0.00
2013-12-4,49.3,40.6,34.2,33.4,29.4,21.4,81,65,50,30.01,29.88,6,1,9,0.00
2013-12-5,48.1,39.5,34.1,32.6,23.5,14.8,80,54,32,30.08,30.00,10,2,12,0.00
2013-12-6,47.5,40.6,33.0,37.2,-6.2,-99.9,84,50,1,30.11,29.84,29,4,40,0.82
2013-12-7,45.5,37.1,30.6,34.7,-3.3,-99.9,84,52,1,30.17,29.85,13,2,19,0.00
2013-12-8,42.1,35.3,30.0,30.1,24.6,17.3,81,66,42,30.23,30.14,8,1,11,0.00
2013-12-9,45.8,38.3,31.5,25.5,20.0,13.8,66,48,34,30.34,30.23,6,2,11,0.00
2013-12-10,49.4,40.5,32.9,32.3,26.9,25.0,80,59,39,30.33,30.13,13,2,13,0.00
2013-12-11,52.6,44.8,37.3,33.1,29.7,24.9,72,56,44,30.17,30.10,9,3,12,0.00
2013-12-12,58.2,46.5,40.6,39.9,13.7,-99.9,81,49,1,30.19,30.09,10,3,13,0.00
2013-12-13,60.5,48.1,38.3,45.2,-2.9,-99.9,82,39,1,30.26,30.15,5,0,6,0.01
2013-12-14,58.4,51.1,45.9,40.2,37.1,34.4,70,59,48,30.31,30.22,9,2,11,0.00
2013-12-15,60.7,50.9,43.7,38.1,35.8,33.1,71,57,36,30.28,30.17,12,3,13,0.00
2013-12-16,64.2,54.6,47.6,38.2,35.6,31.4,65,49,33,30.17,30.04,13,4,15,0.00
2013-12-17,61.8,54.9,49.3,40.6,37.6,33.8,66,52,41,30.10,29.94,12,4,14,0.00
2013-12-18,62.3,51.4,43.5,47.8,-2.0,-99.9,81,38,1,29.95,29.68,14,2,20,0.00
2013-12-19,53.8,46.4,39.9,41.5,28.4,-99.9,82,58,1,29.86,29.66,16,2,21,0.00
2013-12-20,60.5,50.4,42.8,41.1,25.2,9.9,80,40,21,29.93,29.85,5,1,12,0.00
2013-12-21,57.2,49.2,43.8,50.2,-22.2,-99.9,82,38,1,30.00,29.89,9,1,16,0.00
2013-12-22,65.4,55.1,49.0,46.9,41.1,36.9,78,60,44,30.20,30.00,6,1,11,0.00
2013-12-23,62.4,54.2,47.9,41.6,39.1,36.5,66,57,44,30.31,30.19,7,2,9,0.00
2013-12-24,70.8,58.4,52.0,47.0,43.1,39.4,70,57,38,30.25,30.12,5,1,6,0.00
2013-12-25,61.3,54.5,48.0,42.2,38.6,34.2,65,55,40,30.21,30.11,10,2,14,0.00
2013-12-26,63.3,55.3,49.2,40.0,35.7,31.6,65,49,33,30.17,30.09,14,4,15,0.00
2013-12-27,59.0,53.5,49.9,39.6,36.2,31.6,66,52,41,30.15,30.04,10,3,12,0.00
2013-12-28,63.9,55.6,45.9,38.1,31.5,20.4,64,41,23,30.06,29.96,5,0,9,0.00
2013-12-29,60.1,55.4,49.7,34.7,25.2,12.9,56,32,17,30.10,29.99,10,2,14,0.00
2013-12-30,62.6,51.6,45.9,41.2,36.0,24.9,70,56,35,30.17,30.08,11,3,14,0.00
2013-12-31,61.7,50.5,39.9,44.5,36.5,29.4,82,60,35,30.19,30.08,10,1,11,0.00